STQ01 EDLW-EDDH
Flight info
| Callsign | STQ01 |
|---|---|
| Flight time | 0h 40m |
| Altitude | 23000 |
| Route | OSN8Q/06 OSN DCT EXPUH M170 BASUM/N0388F240 Y850 PIXUR/N0383F230 Y850 MUBZI M105 RIBSO RIBSO3D |
| Aircraft | C525/L-SDFGRWY/S |
Departure
| Time | 2026-05-01 14:20 |
|---|---|
| Airport | Dortmund Airport (EDLW) |
Arrival
| Time | 2026-05-01 15:00 |
|---|---|
| Airport | Hamburg Helmut Schmidt Airport (EDDH) |
| Time | Latitude | Longitude | Altitude | Speed | Heading |
|---|---|---|---|---|---|
| 2026-05-01 13:45 | 51.51165 | 7.60334 | 447 ft | 0 kts | 201° |
| 2026-05-01 14:14 | 51.51163 | 7.60333 | 447 ft | 1 kts | 206° |
| 2026-05-01 14:14 | 51.51157 | 7.60306 | 447 ft | 4 kts | 258° |
| 2026-05-01 14:15 | 51.51147 | 7.60243 | 447 ft | 6 kts | 258° |
| 2026-05-01 14:15 | 51.51147 | 7.60184 | 447 ft | 4 kts | 295° |
| 2026-05-01 14:15 | 51.51172 | 7.60158 | 447 ft | 4 kts | 355° |
| 2026-05-01 14:15 | 51.51204 | 7.60199 | 447 ft | 7 kts | 62° |
| 2026-05-01 14:16 | 51.51244 | 7.60309 | 441 ft | 15 kts | 60° |
| 2026-05-01 14:16 | 51.51302 | 7.60471 | 434 ft | 18 kts | 60° |
| 2026-05-01 14:16 | 51.51367 | 7.60652 | 426 ft | 16 kts | 59° |
| 2026-05-01 14:16 | 51.51423 | 7.60810 | 425 ft | 15 kts | 62° |
| 2026-05-01 14:17 | 51.51473 | 7.60952 | 425 ft | 13 kts | 62° |
| 2026-05-01 14:17 | 51.51519 | 7.61054 | 425 ft | 10 kts | 11° |
| 2026-05-01 14:17 | 51.51570 | 7.61001 | 425 ft | 8 kts | 278° |
| 2026-05-01 14:17 | 51.51562 | 7.60913 | 425 ft | 7 kts | 257° |
| 2026-05-01 14:18 | 51.51550 | 7.60844 | 425 ft | 5 kts | 255° |
| 2026-05-01 14:18 | 51.51541 | 7.60793 | 425 ft | 4 kts | 255° |
| 2026-05-01 14:18 | 51.51535 | 7.60755 | 425 ft | 2 kts | 255° |
| 2026-05-01 14:18 | 51.51532 | 7.60737 | 425 ft | 2 kts | 255° |
| 2026-05-01 14:19 | 51.51528 | 7.60693 | 425 ft | 4 kts | 277° |
| 2026-05-01 14:19 | 51.51551 | 7.60631 | 425 ft | 8 kts | 326° |
| 2026-05-01 14:19 | 51.51625 | 7.60630 | 425 ft | 13 kts | 37° |
| 2026-05-01 14:19 | 51.51726 | 7.60911 | 425 ft | 59 kts | 64° |
| 2026-05-01 14:20 | 51.52020 | 7.61782 | 445 ft | 111 kts | 58° |
| 2026-05-01 14:20 | 51.53040 | 7.63959 | 979 ft | 148 kts | 62° |
| 2026-05-01 14:20 | 51.53549 | 7.65402 | 1629 ft | 138 kts | 67° |
| 2026-05-01 14:21 | 51.53945 | 7.66613 | 2331 ft | 122 kts | 70° |
| 2026-05-01 14:21 | 51.54336 | 7.67846 | 2742 ft | 129 kts | 70° |
| 2026-05-01 14:21 | 51.54762 | 7.69169 | 3146 ft | 138 kts | 69° |
| 2026-05-01 14:22 | 51.55721 | 7.72052 | 3881 ft | 164 kts | 67° |
| 2026-05-01 14:22 | 51.56288 | 7.73731 | 4309 ft | 180 kts | 66° |
| 2026-05-01 14:22 | 51.56920 | 7.75586 | 4724 ft | 196 kts | 66° |
| 2026-05-01 14:22 | 51.57603 | 7.77575 | 5126 ft | 212 kts | 65° |
| 2026-05-01 14:23 | 51.58390 | 7.79675 | 5500 ft | 231 kts | 54° |
| 2026-05-01 14:23 | 51.59801 | 7.81057 | 5887 ft | 253 kts | 17° |
| 2026-05-01 14:23 | 51.61591 | 7.80994 | 6279 ft | 268 kts | 347° |
| 2026-05-01 14:23 | 51.63406 | 7.80148 | 6654 ft | 278 kts | 343° |
| 2026-05-01 14:24 | 51.65272 | 7.79181 | 7054 ft | 287 kts | 343° |
| 2026-05-01 14:24 | 51.67222 | 7.78219 | 7455 ft | 294 kts | 344° |
| 2026-05-01 14:24 | 51.69197 | 7.77310 | 7828 ft | 300 kts | 345° |
| 2026-05-01 14:24 | 51.71210 | 7.76437 | 8190 ft | 299 kts | 346° |
| 2026-05-01 14:25 | 51.73216 | 7.75607 | 8557 ft | 298 kts | 347° |
| 2026-05-01 14:25 | 51.75245 | 7.75392 | 8884 ft | 293 kts | 13° |
| 2026-05-01 14:25 | 51.77095 | 7.76605 | 9288 ft | 286 kts | 31° |
| 2026-05-01 14:25 | 51.78790 | 7.78232 | 9657 ft | 283 kts | 36° |
| 2026-05-01 14:26 | 51.80425 | 7.79994 | 10028 ft | 282 kts | 38° |
| 2026-05-01 14:26 | 51.83620 | 7.83654 | 10769 ft | 283 kts | 39° |
| 2026-05-01 14:26 | 51.85205 | 7.85525 | 11136 ft | 283 kts | 39° |
| 2026-05-01 14:27 | 51.86788 | 7.87416 | 11510 ft | 284 kts | 39° |
| 2026-05-01 14:27 | 51.88371 | 7.89323 | 11883 ft | 284 kts | 40° |
| 2026-05-01 14:27 | 51.89946 | 7.91232 | 12253 ft | 284 kts | 40° |
| 2026-05-01 14:28 | 51.93113 | 7.95100 | 12993 ft | 287 kts | 40° |
| 2026-05-01 14:28 | 51.94703 | 7.97051 | 13361 ft | 288 kts | 40° |
| 2026-05-01 14:28 | 51.96298 | 7.99013 | 13734 ft | 289 kts | 40° |
| 2026-05-01 14:28 | 51.97891 | 8.00977 | 14106 ft | 289 kts | 40° |
| 2026-05-01 14:29 | 51.99485 | 8.02946 | 14476 ft | 289 kts | 40° |
| 2026-05-01 14:29 | 52.01075 | 8.04913 | 14852 ft | 290 kts | 40° |
| 2026-05-01 14:30 | 52.05866 | 8.10853 | 15984 ft | 289 kts | 40° |
| 2026-05-01 14:30 | 52.07461 | 8.12836 | 16365 ft | 290 kts | 40° |
| 2026-05-01 14:30 | 52.09057 | 8.14822 | 16742 ft | 290 kts | 40° |
| 2026-05-01 14:31 | 52.12254 | 8.18806 | 17504 ft | 290 kts | 40° |
| 2026-05-01 14:31 | 52.13851 | 8.20799 | 17884 ft | 289 kts | 40° |
| 2026-05-01 14:31 | 52.15445 | 8.22789 | 18268 ft | 289 kts | 40° |
| 2026-05-01 14:31 | 52.17030 | 8.24771 | 18646 ft | 288 kts | 40° |
| 2026-05-01 14:32 | 52.18617 | 8.26758 | 19029 ft | 289 kts | 40° |
| 2026-05-01 14:32 | 52.20246 | 8.28675 | 19417 ft | 290 kts | 33° |
| 2026-05-01 14:32 | 52.22000 | 8.30301 | 19813 ft | 290 kts | 30° |
| 2026-05-01 14:32 | 52.23780 | 8.31852 | 20202 ft | 290 kts | 30° |
| 2026-05-01 14:33 | 52.25556 | 8.33381 | 20593 ft | 290 kts | 29° |
| 2026-05-01 14:33 | 52.27334 | 8.34911 | 20985 ft | 289 kts | 29° |
| 2026-05-01 14:33 | 52.29100 | 8.36434 | 21374 ft | 288 kts | 29° |
| 2026-05-01 14:33 | 52.30859 | 8.37956 | 21766 ft | 287 kts | 29° |
| 2026-05-01 14:34 | 52.32619 | 8.39483 | 22163 ft | 286 kts | 29° |
| 2026-05-01 14:34 | 52.34372 | 8.41007 | 22567 ft | 285 kts | 29° |
| 2026-05-01 14:34 | 52.36112 | 8.42521 | 22970 ft | 284 kts | 29° |
| 2026-05-01 14:34 | 52.37833 | 8.44024 | 23244 ft | 289 kts | 29° |
| 2026-05-01 14:35 | 52.39658 | 8.45621 | 23287 ft | 301 kts | 29° |
| 2026-05-01 14:35 | 52.41533 | 8.47264 | 23294 ft | 312 kts | 29° |
| 2026-05-01 14:35 | 52.43454 | 8.48950 | 23297 ft | 323 kts | 29° |
| 2026-05-01 14:35 | 52.45487 | 8.50734 | 23293 ft | 333 kts | 29° |
| 2026-05-01 14:36 | 52.47546 | 8.52545 | 23295 ft | 341 kts | 29° |
| 2026-05-01 14:36 | 52.49650 | 8.54396 | 23292 ft | 348 kts | 29° |
| 2026-05-01 14:36 | 52.51790 | 8.56281 | 23293 ft | 353 kts | 29° |
| 2026-05-01 14:36 | 52.53957 | 8.58192 | 23295 ft | 358 kts | 29° |
| 2026-05-01 14:37 | 52.56156 | 8.60134 | 23296 ft | 362 kts | 29° |
| 2026-05-01 14:37 | 52.58384 | 8.62103 | 23299 ft | 366 kts | 29° |
| 2026-05-01 14:37 | 52.60627 | 8.64086 | 23300 ft | 369 kts | 29° |
| 2026-05-01 14:37 | 52.62894 | 8.66094 | 23299 ft | 371 kts | 30° |
| 2026-05-01 14:38 | 52.65169 | 8.68111 | 23297 ft | 373 kts | 30° |
| 2026-05-01 14:38 | 52.67462 | 8.70145 | 23300 ft | 375 kts | 30° |
| 2026-05-01 14:38 | 52.69761 | 8.72189 | 23295 ft | 377 kts | 30° |
| 2026-05-01 14:38 | 52.72068 | 8.74242 | 23293 ft | 378 kts | 30° |
| 2026-05-01 14:39 | 52.74379 | 8.76300 | 23295 ft | 379 kts | 30° |
| 2026-05-01 14:39 | 52.76761 | 8.78125 | 23260 ft | 382 kts | 18° |
| 2026-05-01 14:39 | 52.79393 | 8.78572 | 23315 ft | 383 kts | 3° |
| 2026-05-01 14:39 | 52.82044 | 8.78684 | 23302 ft | 382 kts | 2° |
| 2026-05-01 14:40 | 52.84694 | 8.78709 | 23298 ft | 380 kts | 1° |
| 2026-05-01 14:40 | 52.87334 | 8.78710 | 23296 ft | 379 kts | 1° |
| 2026-05-01 14:40 | 52.89968 | 8.78703 | 23298 ft | 378 kts | 1° |
| 2026-05-01 14:40 | 52.92588 | 8.78691 | 23322 ft | 377 kts | 0° |
| 2026-05-01 14:41 | 52.95208 | 8.78678 | 23262 ft | 377 kts | 0° |
| 2026-05-01 14:41 | 52.97782 | 8.78979 | 22735 ft | 374 kts | 8° |
| 2026-05-01 14:41 | 53.00340 | 8.79518 | 22230 ft | 371 kts | 9° |
| 2026-05-01 14:41 | 53.02880 | 8.80100 | 21739 ft | 369 kts | 9° |
| 2026-05-01 14:42 | 53.05440 | 8.80695 | 21246 ft | 367 kts | 9° |
| 2026-05-01 14:42 | 53.07924 | 8.81272 | 20774 ft | 365 kts | 9° |
| 2026-05-01 14:42 | 53.10453 | 8.81857 | 20293 ft | 364 kts | 9° |
| 2026-05-01 14:42 | 53.12954 | 8.82433 | 19821 ft | 363 kts | 9° |
| 2026-05-01 14:43 | 53.15441 | 8.83006 | 19371 ft | 362 kts | 9° |
| 2026-05-01 14:43 | 53.17926 | 8.83577 | 18906 ft | 361 kts | 9° |
| 2026-05-01 14:43 | 53.20404 | 8.84146 | 18458 ft | 360 kts | 9° |
| 2026-05-01 14:43 | 53.22879 | 8.84715 | 18019 ft | 360 kts | 9° |
| 2026-05-01 14:44 | 53.25346 | 8.85281 | 17576 ft | 359 kts | 9° |
| 2026-05-01 14:44 | 53.30278 | 8.86415 | 16606 ft | 360 kts | 9° |
| 2026-05-01 14:44 | 53.32751 | 8.86984 | 16104 ft | 360 kts | 9° |
| 2026-05-01 14:45 | 53.35175 | 8.87803 | 15580 ft | 354 kts | 20° |
| 2026-05-01 14:45 | 53.39585 | 8.90902 | 14588 ft | 340 kts | 25° |
| 2026-05-01 14:45 | 53.41745 | 8.92427 | 14095 ft | 336 kts | 25° |
| 2026-05-01 14:46 | 53.43850 | 8.93917 | 13595 ft | 332 kts | 25° |
| 2026-05-01 14:46 | 53.48062 | 8.96907 | 12598 ft | 327 kts | 25° |
| 2026-05-01 14:46 | 53.50164 | 8.98403 | 12103 ft | 326 kts | 25° |
| 2026-05-01 14:47 | 53.52215 | 8.99864 | 11614 ft | 324 kts | 25° |
| 2026-05-01 14:47 | 53.54239 | 9.01535 | 11366 ft | 318 kts | 34° |
| 2026-05-01 14:47 | 53.56023 | 9.03586 | 11327 ft | 313 kts | 36° |
| 2026-05-01 14:48 | 53.59154 | 9.08310 | 11308 ft | 299 kts | 51° |
| 2026-05-01 14:48 | 53.60496 | 9.10938 | 11308 ft | 294 kts | 53° |
| 2026-05-01 14:48 | 53.63078 | 9.16183 | 11316 ft | 290 kts | 53° |
| 2026-05-01 14:49 | 53.65645 | 9.21463 | 11310 ft | 294 kts | 53° |
| 2026-05-01 14:49 | 53.68292 | 9.26935 | 10720 ft | 306 kts | 53° |
| 2026-05-01 14:50 | 53.70069 | 9.30633 | 10244 ft | 304 kts | 53° |
| 2026-05-01 14:50 | 53.73565 | 9.37952 | 9250 ft | 297 kts | 53° |
| 2026-05-01 14:51 | 53.74844 | 9.40637 | 8884 ft | 292 kts | 53° |
| 2026-05-01 14:51 | 53.77358 | 9.45909 | 8136 ft | 286 kts | 53° |
| 2026-05-01 14:52 | 53.79839 | 9.51098 | 7389 ft | 283 kts | 53° |
| 2026-05-01 14:52 | 53.81066 | 9.53665 | 7014 ft | 281 kts | 53° |
| 2026-05-01 14:52 | 53.83503 | 9.58778 | 6292 ft | 279 kts | 53° |
| 2026-05-01 14:53 | 53.84716 | 9.61330 | 5912 ft | 278 kts | 53° |
| 2026-05-01 14:53 | 53.85915 | 9.63863 | 5546 ft | 276 kts | 53° |
| 2026-05-01 14:53 | 53.87103 | 9.66406 | 5177 ft | 274 kts | 56° |
| 2026-05-01 14:53 | 53.87806 | 9.69316 | 4791 ft | 267 kts | 86° |
| 2026-05-01 14:54 | 53.87516 | 9.72367 | 4432 ft | 260 kts | 113° |
| 2026-05-01 14:54 | 53.86737 | 9.75088 | 4070 ft | 256 kts | 120° |
| 2026-05-01 14:54 | 53.85837 | 9.77660 | 3700 ft | 252 kts | 123° |
| 2026-05-01 14:54 | 53.84915 | 9.80105 | 3334 ft | 247 kts | 125° |
| 2026-05-01 14:55 | 53.83790 | 9.82280 | 3046 ft | 239 kts | 137° |
| 2026-05-01 14:55 | 53.82499 | 9.83892 | 2983 ft | 225 kts | 149° |
| 2026-05-01 14:55 | 53.81107 | 9.84932 | 2977 ft | 214 kts | 161° |
| 2026-05-01 14:55 | 53.79706 | 9.85556 | 2978 ft | 204 kts | 160° |
| 2026-05-01 14:56 | 53.78422 | 9.86436 | 2941 ft | 199 kts | 155° |
| 2026-05-01 14:56 | 53.77134 | 9.87456 | 2618 ft | 209 kts | 153° |
| 2026-05-01 14:56 | 53.75811 | 9.88563 | 2333 ft | 211 kts | 153° |
| 2026-05-01 14:56 | 53.74561 | 9.89631 | 2007 ft | 194 kts | 152° |
| 2026-05-01 14:57 | 53.73432 | 9.90603 | 1894 ft | 167 kts | 152° |
| 2026-05-01 14:57 | 53.71496 | 9.92279 | 1367 ft | 145 kts | 152° |
| 2026-05-01 14:57 | 53.70624 | 9.93035 | 1189 ft | 133 kts | 153° |
| 2026-05-01 14:58 | 53.69855 | 9.93702 | 1018 ft | 121 kts | 151° |
| 2026-05-01 14:58 | 53.69135 | 9.94325 | 864 ft | 111 kts | 152° |
| 2026-05-01 14:58 | 53.68468 | 9.94902 | 725 ft | 105 kts | 153° |
| 2026-05-01 14:58 | 53.67824 | 9.95460 | 600 ft | 104 kts | 151° |
| 2026-05-01 14:59 | 53.67184 | 9.96014 | 467 ft | 105 kts | 150° |
| 2026-05-01 14:59 | 53.66530 | 9.96576 | 343 ft | 105 kts | 150° |
| 2026-05-01 14:59 | 53.65877 | 9.97144 | 217 ft | 105 kts | 152° |
| 2026-05-01 14:59 | 53.65219 | 9.97705 | 96 ft | 104 kts | 151° |
| 2026-05-01 15:00 | 53.64121 | 9.98661 | 57 ft | 72 kts | 156° |
| 2026-05-01 15:00 | 53.63715 | 9.99019 | 57 ft | 60 kts | 153° |
| 2026-05-01 15:00 | 53.63374 | 9.99301 | 57 ft | 48 kts | 150° |
| 2026-05-01 15:01 | 53.63200 | 9.99339 | 57 ft | 19 kts | 195° |
| 2026-05-01 15:01 | 53.63125 | 9.99310 | 57 ft | 5 kts | 195° |
| 2026-05-01 15:01 | 53.63091 | 9.99295 | 57 ft | 5 kts | 198° |
| 2026-05-01 15:01 | 53.63047 | 9.99258 | 57 ft | 8 kts | 215° |
| 2026-05-01 15:02 | 53.62998 | 9.99177 | 57 ft | 11 kts | 228° |
| 2026-05-01 15:02 | 53.62963 | 9.99104 | 57 ft | 13 kts | 230° |
| 2026-05-01 15:02 | 53.62875 | 9.98927 | 57 ft | 15 kts | 229° |
| 2026-05-01 15:02 | 53.62817 | 9.98809 | 57 ft | 8 kts | 229° |
| 2026-05-01 15:03 | 53.62780 | 9.98807 | 57 ft | 5 kts | 150° |
| 2026-05-01 15:03 | 53.62754 | 9.98836 | 57 ft | 3 kts | 107° |
| 2026-05-01 15:03 | 53.62760 | 9.98871 | 57 ft | 2 kts | 64° |
| 2026-05-01 15:03 | 53.62768 | 9.98884 | 57 ft | 1 kts | 351° |
| 2026-05-01 15:04 | 53.62771 | 9.98880 | 57 ft | 0 kts | 310° |